Time,TemperatureF,DewpointF,PressureIn,WindDirection,WindDirectionDegrees,WindSpeedMPH,WindSpeedGustMPH,Humidity,HourlyPrecipIn,Conditions,Clouds,dailyrainin,SoftwareType,DateUTC
2013-03-10 00:01:00,34.0,31.0,29.79,South,175,2.0,11.0,90,0.02,,,0.10,,2013-03-10 05:01:00,
2013-03-10 00:11:00,34.0,31.0,29.79,South,175,2.0,11.0,90,0.02,,,0.10,,2013-03-10 05:11:00,
2013-03-10 00:22:00,34.0,31.0,29.80,South,181,2.0,10.0,90,0.03,,,0.11,,2013-03-10 05:22:00,
2013-03-10 00:31:00,34.0,31.0,29.79,SSE,159,2.0,10.0,90,0.02,,,0.11,,2013-03-10 05:31:00,
2013-03-10 00:42:00,34.0,31.0,29.78,SSE,167,2.0,10.0,90,0.02,,,0.11,,2013-03-10 05:42:00,
2013-03-10 00:52:00,34.0,31.0,29.78,SSE,167,2.0,10.0,90,0.02,,,0.11,,2013-03-10 05:52:00,
2013-03-10 01:01:00,35.0,32.0,29.79,SSE,168,2.0,6.0,90,0.01,,,0.11,,2013-03-10 06:01:00,
2013-03-10 01:11:00,35.0,32.0,29.79,SSE,168,2.0,6.0,90,0.01,,,0.11,,2013-03-10 06:11:00,
2013-03-10 01:22:00,35.0,32.0,29.79,South,169,2.0,7.0,90,0.00,,,0.11,,2013-03-10 06:22:00,
2013-03-10 01:32:00,35.0,32.0,29.79,South,187,2.0,8.0,90,0.00,,,0.11,,2013-03-10 06:32:00,
2013-03-10 01:42:00,35.0,32.0,29.79,South,187,2.0,8.0,90,0.00,,,0.11,,2013-03-10 06:42:00,
2013-03-10 01:51:00,35.0,33.0,29.78,SSW,192,3.0,9.0,91,0.01,,,0.12,,2013-03-10 06:51:00,
2013-03-10 03:02:00,35.0,33.0,29.78,SSE,154,2.0,11.0,91,0.01,,,0.12,,2013-03-10 07:02:00,
2013-03-10 03:11:00,35.0,33.0,29.78,SSE,154,2.0,11.0,91,0.01,,,0.12,,2013-03-10 07:11:00,
2013-03-10 03:21:00,35.0,32.0,29.78,SSE,163,3.0,8.0,90,0.01,,,0.12,,2013-03-10 07:21:00,
2013-03-10 03:32:00,35.0,32.0,29.78,South,171,1.0,7.0,90,0.01,,,0.12,,2013-03-10 07:32:00,
2013-03-10 03:42:00,35.0,33.0,29.77,South,180,2.0,8.0,91,0.00,,,0.12,,2013-03-10 07:42:00,
2013-03-10 03:52:00,35.0,33.0,29.77,South,180,2.0,8.0,91,0.00,,,0.12,,2013-03-10 07:52:00,
2013-03-10 04:01:00,35.0,33.0,29.76,South,177,3.0,9.0,91,0.00,,,0.12,,2013-03-10 08:01:00,
2013-03-10 04:11:00,35.0,33.0,29.76,South,177,3.0,9.0,91,0.00,,,0.12,,2013-03-10 08:11:00,
2013-03-10 04:21:00,35.0,33.0,29.76,South,184,2.0,6.0,91,0.00,,,0.12,,2013-03-10 08:21:00,
2013-03-10 04:31:00,35.0,33.0,29.75,SSE,168,2.0,7.0,92,0.00,,,0.12,,2013-03-10 08:31:00,
2013-03-10 04:42:00,35.0,33.0,29.75,SSE,168,2.0,7.0,92,0.00,,,0.12,,2013-03-10 08:42:00,
2013-03-10 04:51:00,35.0,33.0,29.73,South,175,3.0,10.0,92,0.00,,,0.12,,2013-03-10 08:51:00,
2013-03-10 05:01:00,35.0,33.0,29.72,SSW,200,1.0,8.0,92,0.00,,,0.12,,2013-03-10 09:01:00,
2013-03-10 05:11:00,35.0,33.0,29.72,SSW,200,1.0,8.0,92,0.00,,,0.12,,2013-03-10 09:11:00,
2013-03-10 05:21:00,35.0,33.0,29.73,South,182,1.0,4.0,92,0.00,,,0.12,,2013-03-10 09:21:00,
2013-03-10 05:31:00,35.0,33.0,29.73,South,176,1.0,3.0,91,0.00,,,0.12,,2013-03-10 09:31:00,
2013-03-10 05:41:00,35.0,33.0,29.73,South,176,1.0,3.0,91,0.00,,,0.12,,2013-03-10 09:41:00,
2013-03-10 05:51:00,35.0,33.0,29.74,South,186,0.0,2.0,91,0.00,,,0.12,,2013-03-10 09:51:00,
2013-03-10 06:01:00,35.0,33.0,29.74,South,186,0.0,1.0,91,0.00,,,0.12,,2013-03-10 10:01:00,
2013-03-10 06:11:00,35.0,33.0,29.74,South,186,0.0,1.0,91,0.00,,,0.12,,2013-03-10 10:11:00,
2013-03-10 06:21:00,35.0,33.0,29.74,South,186,0.0,3.0,91,0.00,,,0.12,,2013-03-10 10:21:00,
2013-03-10 06:32:00,35.0,33.0,29.75,South,186,0.0,2.0,91,0.00,,,0.12,,2013-03-10 10:32:00,
2013-03-10 06:42:00,35.0,33.0,29.75,South,186,0.0,4.0,91,0.00,,,0.12,,2013-03-10 10:42:00,
2013-03-10 06:52:00,35.0,33.0,29.75,South,186,0.0,4.0,91,0.00,,,0.12,,2013-03-10 10:52:00,
2013-03-10 07:01:00,35.0,33.0,29.75,South,186,0.0,1.0,91,0.00,,,0.12,,2013-03-10 11:01:00,
2013-03-10 07:12:00,35.0,33.0,29.75,South,186,0.0,1.0,91,0.00,,,0.12,,2013-03-10 11:12:00,
2013-03-10 07:21:00,35.0,33.0,29.76,South,186,0.0,3.0,91,0.00,,,0.12,,2013-03-10 11:21:00,
2013-03-10 07:32:00,35.0,33.0,29.76,South,186,0.0,2.0,92,0.00,,,0.12,,2013-03-10 11:32:00,
2013-03-10 07:42:00,35.0,33.0,29.76,South,186,0.0,2.0,92,0.00,,,0.12,,2013-03-10 11:42:00,
2013-03-10 07:52:00,35.0,33.0,29.77,South,186,0.0,1.0,92,0.01,,,0.13,,2013-03-10 11:52:00,
2013-03-10 08:01:00,34.0,32.0,29.77,South,186,0.0,2.0,92,0.02,,,0.14,,2013-03-10 12:01:00,
2013-03-10 08:11:00,34.0,32.0,29.77,South,186,0.0,2.0,92,0.02,,,0.14,,2013-03-10 12:11:00,
2013-03-10 08:21:00,34.0,32.0,29.78,South,186,0.0,2.0,93,0.02,,,0.14,,2013-03-10 12:21:00,
2013-03-10 08:31:00,34.0,32.0,29.78,South,186,0.0,1.0,93,0.02,,,0.14,,2013-03-10 12:31:00,
2013-03-10 08:42:00,34.0,32.0,29.78,South,186,0.0,1.0,93,0.02,,,0.14,,2013-03-10 12:42:00,
2013-03-10 08:51:00,34.0,32.0,29.77,South,186,0.0,0.0,93,0.01,,,0.14,,2013-03-10 12:51:00,
2013-03-10 09:01:00,34.0,32.0,29.78,South,186,0.0,3.0,94,0.00,,,0.14,,2013-03-10 13:01:00,
2013-03-10 09:11:00,34.0,32.0,29.78,South,186,0.0,3.0,94,0.00,,,0.14,,2013-03-10 13:11:00,
2013-03-10 09:21:00,34.0,32.0,29.77,South,186,0.0,3.0,94,0.00,,,0.14,,2013-03-10 13:21:00,
2013-03-10 09:31:00,35.0,33.0,29.77,South,186,0.0,2.0,94,0.00,,,0.14,,2013-03-10 13:31:00,
2013-03-10 09:41:00,35.0,33.0,29.77,South,186,0.0,2.0,94,0.00,,,0.14,,2013-03-10 13:41:00,
2013-03-10 09:52:00,35.0,33.0,29.77,South,186,0.0,2.0,94,0.00,,,0.14,,2013-03-10 13:52:00,
2013-03-10 10:01:00,35.0,33.0,29.78,South,186,0.0,0.0,93,0.00,,,0.14,,2013-03-10 14:01:00,
2013-03-10 10:11:00,35.0,33.0,29.78,South,186,0.0,0.0,93,0.00,,,0.14,,2013-03-10 14:11:00,
2013-03-10 10:21:00,35.0,33.0,29.79,South,186,0.0,2.0,93,0.00,,,0.14,,2013-03-10 14:21:00,
2013-03-10 10:32:00,35.0,33.0,29.80,NW,321,1.0,6.0,93,0.00,,,0.14,,2013-03-10 14:32:00,
2013-03-10 10:41:00,35.0,33.0,29.80,NW,321,1.0,6.0,93,0.00,,,0.14,,2013-03-10 14:41:00,
2013-03-10 10:51:00,35.0,33.0,29.80,NNE,13,3.0,8.0,93,0.00,,,0.14,,2013-03-10 14:51:00,
2013-03-10 11:01:00,35.0,33.0,29.79,NNE,18,2.0,5.0,92,0.00,,,0.14,,2013-03-10 15:01:00,
2013-03-10 11:11:00,35.0,33.0,29.79,NNE,18,2.0,5.0,92,0.00,,,0.14,,2013-03-10 15:11:00,
2013-03-10 11:21:00,34.0,32.0,29.80,NNE,12,0.0,3.0,93,0.00,,,0.14,,2013-03-10 15:21:00,
2013-03-10 11:32:00,35.0,33.0,29.82,NNE,12,0.0,3.0,93,0.00,,,0.14,,2013-03-10 15:32:00,
2013-03-10 11:42:00,35.0,33.0,29.82,NNE,12,0.0,3.0,93,0.00,,,0.14,,2013-03-10 15:42:00,
2013-03-10 11:51:00,35.0,33.0,29.83,NW,315,2.0,6.0,92,0.00,,,0.14,,2013-03-10 15:51:00,
2013-03-10 12:01:00,35.0,32.0,29.85,NNW,328,1.0,6.0,89,0.00,,,0.14,,2013-03-10 16:01:00,
2013-03-10 12:12:00,35.0,32.0,29.85,NNW,328,1.0,6.0,89,0.00,,,0.14,,2013-03-10 16:12:00,
2013-03-10 12:21:00,36.0,33.0,29.85,NNW,337,2.0,11.0,87,0.00,,,0.14,,2013-03-10 16:21:00,
2013-03-10 12:32:00,35.0,32.0,29.86,NNW,337,1.0,9.0,87,0.00,,,0.14,,2013-03-10 16:32:00,
2013-03-10 12:41:00,35.0,32.0,29.86,NNW,337,1.0,9.0,87,0.00,,,0.14,,2013-03-10 16:41:00,
2013-03-10 12:51:00,35.0,31.0,29.86,NW,316,4.0,9.0,85,0.00,,,0.14,,2013-03-10 16:51:00,
2013-03-10 13:01:00,36.0,32.0,29.86,North,350,4.0,9.0,84,0.00,,,0.14,,2013-03-10 17:01:00,
2013-03-10 13:11:00,36.0,32.0,29.86,North,350,4.0,9.0,84,0.00,,,0.14,,2013-03-10 17:11:00,
2013-03-10 13:21:00,36.0,31.0,29.85,NNE,16,5.0,12.0,82,0.00,,,0.14,,2013-03-10 17:21:00,
2013-03-10 13:31:00,35.0,30.0,29.87,North,9,5.0,15.0,82,0.00,,,0.14,,2013-03-10 17:31:00,
2013-03-10 13:41:00,35.0,30.0,29.87,North,9,5.0,15.0,82,0.00,,,0.14,,2013-03-10 17:41:00,
2013-03-10 13:51:00,35.0,30.0,29.88,NW,323,2.0,9.0,83,0.00,,,0.14,,2013-03-10 17:51:00,
2013-03-10 14:01:00,35.0,30.0,29.88,North,360,7.0,13.0,82,0.00,,,0.14,,2013-03-10 18:01:00,
2013-03-10 14:11:00,35.0,30.0,29.88,North,360,7.0,13.0,82,0.00,,,0.14,,2013-03-10 18:11:00,
2013-03-10 14:21:00,36.0,30.0,29.88,NNE,19,5.0,14.0,80,0.00,,,0.14,,2013-03-10 18:21:00,
2013-03-10 14:32:00,35.0,30.0,29.89,NW,317,7.0,16.0,81,0.00,,,0.14,,2013-03-10 18:32:00,
2013-03-10 14:42:00,35.0,30.0,29.89,NW,317,7.0,16.0,81,0.00,,,0.14,,2013-03-10 18:42:00,
2013-03-10 14:52:00,35.0,30.0,29.90,NW,319,4.0,13.0,82,0.00,,,0.14,,2013-03-10 18:52:00,
2013-03-10 15:01:00,34.0,29.0,29.91,North,351,6.0,16.0,83,0.00,,,0.14,,2013-03-10 19:01:00,
2013-03-10 15:11:00,34.0,29.0,29.91,North,351,6.0,16.0,83,0.00,,,0.14,,2013-03-10 19:11:00,
2013-03-10 15:21:00,34.0,29.0,29.90,North,360,7.0,14.0,83,0.00,,,0.14,,2013-03-10 19:21:00,
2013-03-10 15:32:00,34.0,29.0,29.89,NNE,14,7.0,14.0,83,0.00,,,0.14,,2013-03-10 19:32:00,
2013-03-10 15:42:00,34.0,29.0,29.89,NNE,14,7.0,14.0,83,0.00,,,0.14,,2013-03-10 19:42:00,
2013-03-10 15:52:00,34.0,29.0,29.89,North,360,6.0,15.0,81,0.00,,,0.14,,2013-03-10 19:52:00,
2013-03-10 16:02:00,34.0,29.0,29.90,NNW,329,5.0,21.0,82,0.00,,,0.14,,2013-03-10 20:02:00,
2013-03-10 16:12:00,34.0,29.0,29.90,NNW,329,5.0,21.0,82,0.00,,,0.14,,2013-03-10 20:12:00,
2013-03-10 16:22:00,34.0,29.0,29.92,East,87,5.0,14.0,83,0.00,,,0.14,,2013-03-10 20:22:00,
2013-03-10 16:32:00,33.0,28.0,29.92,NW,311,5.0,14.0,83,0.00,,,0.12,,2013-03-10 20:32:00,
2013-03-10 16:42:00,33.0,28.0,29.92,NW,311,5.0,14.0,83,0.00,,,0.12,,2013-03-10 20:42:00,
2013-03-10 16:52:00,33.0,29.0,29.92,West,265,6.0,12.0,84,0.00,,,0.12,,2013-03-10 20:52:00,
2013-03-10 17:02:00,33.0,29.0,29.93,NW,319,4.0,14.0,84,0.00,,,0.12,,2013-03-10 21:02:00,
2013-03-10 17:12:00,33.0,29.0,29.93,NW,319,4.0,14.0,84,0.00,,,0.12,,2013-03-10 21:12:00,
2013-03-10 17:23:00,33.0,29.0,29.93,NW,311,3.0,13.0,84,0.00,,,0.12,,2013-03-10 21:23:00,
2013-03-10 17:32:00,33.0,29.0,29.93,NW,311,3.0,13.0,84,0.00,,,0.12,,2013-03-10 21:32:00,
2013-03-10 17:42:00,33.0,29.0,29.93,NW,311,3.0,13.0,84,0.00,,,0.12,,2013-03-10 21:42:00,
2013-03-10 17:52:00,32.0,27.0,29.91,NNW,330,5.0,19.0,83,0.00,,,0.11,,2013-03-10 21:52:00,
2013-03-10 18:02:00,32.0,27.0,29.91,NNE,32,8.0,13.0,82,0.00,,,0.11,,2013-03-10 22:02:00,
2013-03-10 18:12:00,32.0,27.0,29.91,NNE,32,8.0,13.0,82,0.00,,,0.11,,2013-03-10 22:12:00,
2013-03-10 18:22:00,32.0,27.0,29.91,North,9,8.0,16.0,81,0.00,,,0.11,,2013-03-10 22:22:00,
2013-03-10 18:32:00,32.0,27.0,29.92,North,11,9.0,17.0,80,0.00,,,0.11,,2013-03-10 22:32:00,
2013-03-10 18:43:00,32.0,27.0,29.92,North,11,9.0,17.0,80,0.00,,,0.11,,2013-03-10 22:43:00,
2013-03-10 18:52:00,32.0,26.0,29.92,North,10,7.0,15.0,79,0.00,,,0.11,,2013-03-10 22:52:00,
2013-03-10 19:03:00,32.0,27.0,29.91,North,9,8.0,20.0,80,0.00,,,0.11,,2013-03-10 23:03:00,
2013-03-10 19:12:00,32.0,27.0,29.91,North,9,8.0,20.0,80,0.00,,,0.11,,2013-03-10 23:12:00,
2013-03-10 19:23:00,32.0,27.0,29.91,NNW,331,10.0,24.0,82,0.00,,,0.11,,2013-03-10 23:23:00,
2013-03-10 19:32:00,32.0,27.0,29.91,NNW,344,5.0,17.0,81,0.00,,,0.11,,2013-03-10 23:32:00,
2013-03-10 19:42:00,32.0,27.0,29.91,NNW,344,5.0,17.0,81,0.00,,,0.11,,2013-03-10 23:42:00,
2013-03-10 19:52:00,32.0,27.0,29.91,NNE,19,7.0,12.0,82,0.00,,,0.11,,2013-03-10 23:52:00,
2013-03-10 20:02:00,32.0,28.0,29.92,NNE,14,7.0,13.0,85,0.00,,,0.11,,2013-03-11 00:02:00,
2013-03-10 20:12:00,32.0,28.0,29.92,NNE,14,7.0,13.0,85,0.00,,,0.11,,2013-03-11 00:12:00,
2013-03-10 20:23:00,32.0,28.0,29.93,NNE,15,7.0,15.0,84,0.00,,,0.11,,2013-03-11 00:23:00,
2013-03-10 20:33:00,32.0,28.0,29.94,NNE,22,6.0,13.0,85,0.00,,,0.11,,2013-03-11 00:33:00,
2013-03-10 20:43:00,32.0,28.0,29.94,NNE,22,6.0,13.0,85,0.00,,,0.11,,2013-03-11 00:43:00,
2013-03-10 20:52:00,32.0,28.0,29.93,NNE,17,7.0,13.0,85,0.00,,,0.11,,2013-03-11 00:52:00,
2013-03-10 21:02:00,32.0,28.0,29.93,NNE,17,6.0,12.0,85,0.00,,,0.11,,2013-03-11 01:02:00,
2013-03-10 21:13:00,32.0,28.0,29.93,NNE,17,6.0,12.0,85,0.00,,,0.11,,2013-03-11 01:13:00,
2013-03-10 21:23:00,32.0,28.0,29.94,NNE,15,7.0,15.0,84,0.00,,,0.11,,2013-03-11 01:23:00,
2013-03-10 21:32:00,32.0,27.0,29.94,NNE,16,8.0,16.0,83,0.00,,,0.11,,2013-03-11 01:32:00,
2013-03-10 21:42:00,32.0,27.0,29.94,NNE,16,8.0,16.0,83,0.00,,,0.11,,2013-03-11 01:42:00,
2013-03-10 21:52:00,32.0,27.0,29.93,NNE,12,6.0,14.0,82,0.00,,,0.11,,2013-03-11 01:52:00,
2013-03-10 22:02:00,32.0,27.0,29.93,NNE,15,5.0,15.0,83,0.00,,,0.11,,2013-03-11 02:02:00,
2013-03-10 22:12:00,32.0,27.0,29.93,NNE,15,5.0,15.0,83,0.00,,,0.11,,2013-03-11 02:12:00,
2013-03-10 22:22:00,32.0,27.0,29.93,NE,34,6.0,12.0,83,0.00,,,0.11,,2013-03-11 02:22:00,
2013-03-10 22:32:00,32.0,27.0,29.94,NE,44,6.0,14.0,83,0.00,,,0.09,,2013-03-11 02:32:00,
2013-03-10 22:42:00,32.0,27.0,29.94,NE,44,6.0,14.0,83,0.00,,,0.09,,2013-03-11 02:42:00,
2013-03-10 22:52:00,32.0,27.0,29.93,NE,36,7.0,15.0,83,0.00,,,0.09,,2013-03-11 02:52:00,
2013-03-10 23:02:00,32.0,28.0,29.92,North,9,10.0,16.0,84,0.00,,,0.09,,2013-03-11 03:02:00,
2013-03-10 23:12:00,32.0,28.0,29.92,North,9,10.0,16.0,84,0.00,,,0.09,,2013-03-11 03:12:00,
2013-03-10 23:22:00,32.0,28.0,29.91,NNE,31,8.0,16.0,85,0.00,,,0.09,,2013-03-11 03:22:00,
2013-03-10 23:32:00,32.0,29.0,29.90,NE,42,9.0,15.0,87,0.00,,,0.07,,2013-03-11 03:32:00,
2013-03-10 23:42:00,32.0,29.0,29.90,NE,42,9.0,15.0,87,0.00,,,0.07,,2013-03-11 03:42:00,
2013-03-10 23:52:00,32.0,29.0,29.89,NNE,22,12.0,21.0,89,0.00,,,0.07,,2013-03-11 03:52:00,